Time;durP1;ratioP1;P1;durP2;ratioP2;P2;SDS_P1;SDS_P2;PMS_P1;PMS_P2;Temp;Humidity;BMP_temperature;BMP_pressure;BME280_temperature;BME280_humidity;BME280_pressure;Samples;Min_cycle;Max_cycle;Signal;HPM_P1;HPM_P2
2023/05/27 00:00:00;;;;;;;7.85;5.32;;;;;;;;;;5038385;28;20415;-80
2023/05/27 00:02:26;;;;;;;10.02;5.65;;;;;;;;;;5023832;28;20034;-82
2023/05/27 00:04:51;;;;;;;11.50;5.80;;;;;;;;;;5021762;28;20089;-81
2023/05/27 00:07:17;;;;;;;8.88;5.78;;;;;;;;;;5023783;28;20067;-82
2023/05/27 00:09:42;;;;;;;11.02;5.20;;;;;;;;;;5024260;28;20034;-83
2023/05/27 00:12:08;;;;;;;7.35;5.30;;;;;;;;;;5023959;28;20060;-83
2023/05/27 00:14:34;;;;;;;8.15;5.32;;;;;;;;;;5025914;28;20073;-83
2023/05/27 00:17:01;;;;;;;7.75;5.50;;;;;;;;;;5024967;28;20037;-82
2023/05/27 00:19:29;;;;;;;9.50;5.50;;;;;;;;;;5024392;28;20058;-84
2023/05/27 00:21:55;;;;;;;8.38;5.57;;;;;;;;;;5006406;28;20042;-81
2023/05/27 00:24:21;;;;;;;10.23;5.93;;;;;;;;;;5023964;28;20034;-83
2023/05/27 00:26:46;;;;;;;7.82;5.40;;;;;;;;;;5023172;28;20057;-83
2023/05/27 00:29:12;;;;;;;9.80;5.65;;;;;;;;;;5020981;28;20026;-82
2023/05/27 00:31:37;;;;;;;8.40;5.72;;;;;;;;;;5023514;28;20044;-83
2023/05/27 00:34:03;;;;;;;10.55;5.45;;;;;;;;;;5022593;28;20068;-80
2023/05/27 00:36:31;;;;;;;12.00;5.90;;;;;;;;;;5020771;28;20033;-81
2023/05/27 00:38:57;;;;;;;9.68;5.47;;;;;;;;;;5021366;28;20037;-80
2023/05/27 00:41:23;;;;;;;9.60;5.70;;;;;;;;;;5036305;28;20053;-83
2023/05/27 00:43:48;;;;;;;10.52;6.03;;;;;;;;;;5018344;28;20041;-81
2023/05/27 00:46:14;;;;;;;8.30;5.10;;;;;;;;;;5016937;28;20050;-80
2023/05/27 00:48:41;;;;;;;10.90;5.95;;;;;;;;;;5021548;28;20042;-81
2023/05/27 00:51:06;;;;;;;9.60;5.68;;;;;;;;;;5023510;28;20173;-80
2023/05/27 00:53:42;;;;;;;10.65;5.78;;;;;;;;;;5004958;28;20492;-80
2023/05/27 00:56:09;;;;;;;9.45;5.35;;;;;;;;;;5019643;28;20030;-82
2023/05/27 00:58:36;;;;;;;7.82;5.28;;;;;;;;;;5022187;28;20045;-81
2023/05/27 01:01:02;;;;;;;9.43;5.25;;;;;;;;;;5037086;28;20060;-80
2023/05/27 01:03:29;;;;;;;7.53;5.47;;;;;;;;;;5019472;28;20048;-80
2023/05/27 01:06:06;;;;;;;11.88;6.10;;;;;;;;;;5026444;28;20125;-80
2023/05/27 01:08:40;;;;;;;9.23;5.55;;;;;;;;;;5024611;28;20495;-82
2023/05/27 01:11:10;;;;;;;6.40;5.15;;;;;;;;;;5025504;28;20084;-80
2023/05/27 01:13:38;;;;;;;11.68;5.82;;;;;;;;;;5025832;28;20030;-82
2023/05/27 01:16:10;;;;;;;8.00;5.20;;;;;;;;;;5027168;28;20033;-82
2023/05/27 01:18:40;;;;;;;10.77;5.55;;;;;;;;;;5034683;28;20030;-80
2023/05/27 01:21:09;;;;;;;7.75;5.35;;;;;;;;;;5021381;28;20041;-81
2023/05/27 01:23:38;;;;;;;8.25;5.53;;;;;;;;;;5020806;28;20036;-80
2023/05/27 01:26:05;;;;;;;9.57;5.88;;;;;;;;;;5020372;28;20034;-82
2023/05/27 01:28:31;;;;;;;9.25;5.45;;;;;;;;;;5020806;28;20021;-81
2023/05/27 01:31:13;;;;;;;9.57;6.40;;;;;;;;;;5022186;28;20034;-80
2023/05/27 01:33:42;;;;;;;8.95;5.60;;;;;;;;;;5003543;28;20029;-81
2023/05/27 01:36:16;;;;;;;10.02;5.40;;;;;;;;;;5036739;28;20037;-81
2023/05/27 01:38:43;;;;;;;9.55;5.85;;;;;;;;;;5022003;28;20034;-80
2023/05/27 01:41:09;;;;;;;7.95;5.55;;;;;;;;;;5014956;28;20044;-81
2023/05/27 01:43:37;;;;;;;10.65;5.72;;;;;;;;;;5002921;28;20037;-80
2023/05/27 01:46:03;;;;;;;8.35;5.32;;;;;;;;;;5003289;28;20057;-81
2023/05/27 01:48:28;;;;;;;10.00;5.82;;;;;;;;;;5019419;28;20040;-80
2023/05/27 01:50:54;;;;;;;8.60;5.38;;;;;;;;;;5019800;28;20064;-82
2023/05/27 01:53:20;;;;;;;8.70;5.50;;;;;;;;;;5020243;28;20034;-80
2023/05/27 01:55:46;;;;;;;10.18;6.53;;;;;;;;;;5003248;28;20033;-82
2023/05/27 01:58:12;;;;;;;10.20;6.18;;;;;;;;;;5003283;28;20030;-80
2023/05/27 02:00:37;;;;;;;9.10;5.35;;;;;;;;;;5019818;28;20156;-80
2023/05/27 02:03:03;;;;;;;9.32;5.75;;;;;;;;;;5019780;28;20029;-80
2023/05/27 02:05:29;;;;;;;9.52;5.90;;;;;;;;;;5019468;28;20431;-79
2023/05/27 02:07:55;;;;;;;11.57;5.78;;;;;;;;;;5021345;28;20030;-80
2023/05/27 02:10:21;;;;;;;8.38;5.82;;;;;;;;;;5020004;28;20038;-79
2023/05/27 02:12:48;;;;;;;9.45;5.63;;;;;;;;;;5021043;28;20470;-80
2023/05/27 02:15:13;;;;;;;12.35;6.15;;;;;;;;;;5022196;28;20059;-82
2023/05/27 02:17:44;;;;;;;10.02;5.60;;;;;;;;;;5042495;28;20033;-82
2023/05/27 02:20:11;;;;;;;9.75;5.70;;;;;;;;;;5021235;28;20053;-81
2023/05/27 02:22:36;;;;;;;10.18;5.90;;;;;;;;;;5021598;28;20045;-81
2023/05/27 02:25:02;;;;;;;8.70;5.65;;;;;;;;;;5036127;28;20117;-81
2023/05/27 02:27:27;;;;;;;9.38;6.00;;;;;;;;;;5021188;28;20042;-82
2023/05/27 02:29:54;;;;;;;7.82;5.88;;;;;;;;;;5019483;28;20034;-81
2023/05/27 02:32:19;;;;;;;11.23;5.95;;;;;;;;;;5019740;28;20625;-82
2023/05/27 02:34:45;;;;;;;10.15;5.80;;;;;;;;;;5019615;28;20026;-81
2023/05/27 02:37:11;;;;;;;11.57;6.03;;;;;;;;;;5020122;28;20123;-80
2023/05/27 02:39:37;;;;;;;11.77;6.20;;;;;;;;;;5019581;28;20412;-81
2023/05/27 02:42:03;;;;;;;11.45;6.72;;;;;;;;;;5019761;28;20052;-80
2023/05/27 02:44:28;;;;;;;8.27;6.32;;;;;;;;;;5020190;28;20105;-82
2023/05/27 02:46:54;;;;;;;11.18;6.65;;;;;;;;;;5034217;23;20049;-85
2023/05/27 02:49:19;;;;;;;9.85;6.20;;;;;;;;;;5014361;28;20048;-85
2023/05/27 02:51:45;;;;;;;10.43;6.28;;;;;;;;;;5013514;28;20388;-85
2023/05/27 02:54:10;;;;;;;10.98;6.22;;;;;;;;;;5013068;28;20037;-87
2023/05/27 02:56:36;;;;;;;10.15;6.38;;;;;;;;;;5001734;28;20066;-84
2023/05/27 02:59:02;;;;;;;10.98;6.10;;;;;;;;;;4976147;28;20031;-84
2023/05/27 03:01:27;;;;;;;8.88;6.35;;;;;;;;;;4977426;28;20035;-84
2023/05/27 03:03:53;;;;;;;11.98;6.88;;;;;;;;;;4994239;28;20459;-88
2023/05/27 03:06:18;;;;;;;10.55;6.97;;;;;;;;;;4994080;28;20050;-84
2023/05/27 03:08:44;;;;;;;11.05;6.82;;;;;;;;;;4991183;28;20042;-85
2023/05/27 03:11:10;;;;;;;10.35;6.95;;;;;;;;;;4975642;28;20555;-85
2023/05/27 03:13:36;;;;;;;11.02;6.78;;;;;;;;;;4976595;28;20041;-84
2023/05/27 03:16:01;;;;;;;9.85;6.93;;;;;;;;;;4975291;28;20059;-86
2023/05/27 03:18:27;;;;;;;9.90;6.78;;;;;;;;;;4993981;28;20331;-88
2023/05/27 03:20:53;;;;;;;15.55;7.07;;;;;;;;;;4993208;28;20512;-84
2023/05/27 03:23:18;;;;;;;11.98;7.07;;;;;;;;;;4965959;28;20085;-86
2023/05/27 03:25:44;;;;;;;10.98;6.80;;;;;;;;;;4975409;28;20034;-84
2023/05/27 03:28:10;;;;;;;8.98;5.90;;;;;;;;;;4991265;28;20038;-84
2023/05/27 03:30:36;;;;;;;11.68;6.78;;;;;;;;;;4992588;28;20034;-85
2023/05/27 03:33:02;;;;;;;12.70;7.15;;;;;;;;;;4975149;28;20041;-86
2023/05/27 03:35:36;;;;;;;10.25;6.97;;;;;;;;;;4971903;28;20034;-85
2023/05/27 03:38:02;;;;;;;12.10;7.38;;;;;;;;;;4974311;28;20144;-87
2023/05/27 03:40:28;;;;;;;13.35;7.07;;;;;;;;;;4966313;28;20122;-87
2023/05/27 03:42:53;;;;;;;11.57;7.18;;;;;;;;;;4974419;28;20126;-84
2023/05/27 03:45:21;;;;;;;12.15;7.28;;;;;;;;;;4974019;28;20037;-85
2023/05/27 03:47:47;;;;;;;9.70;6.63;;;;;;;;;;4957157;28;20038;-84
2023/05/27 03:50:14;;;;;;;10.73;7.18;;;;;;;;;;4992834;28;20057;-85
2023/05/27 03:52:39;;;;;;;12.27;7.20;;;;;;;;;;4993824;28;20046;-85
2023/05/27 03:55:06;;;;;;;10.60;7.25;;;;;;;;;;4976789;28;20125;-85
2023/05/27 03:57:33;;;;;;;11.65;6.68;;;;;;;;;;4993565;28;20042;-85
2023/05/27 03:59:58;;;;;;;15.82;6.95;;;;;;;;;;4969652;28;20042;-88
2023/05/27 04:02:24;;;;;;;11.15;7.03;;;;;;;;;;4994371;28;20503;-85
2023/05/27 04:04:51;;;;;;;10.77;6.45;;;;;;;;;;4969370;28;20053;-86
2023/05/27 04:07:18;;;;;;;10.70;6.65;;;;;;;;;;4960690;28;20754;-88
2023/05/27 04:09:44;;;;;;;8.85;6.95;;;;;;;;;;4961345;28;20045;-84
2023/05/27 04:12:10;;;;;;;10.45;7.57;;;;;;;;;;4974450;28;20073;-86
2023/05/27 04:14:36;;;;;;;12.63;6.60;;;;;;;;;;4993427;28;20066;-85
2023/05/27 04:17:01;;;;;;;11.65;6.95;;;;;;;;;;4991646;28;20374;-85
2023/05/27 04:19:27;;;;;;;12.50;7.07;;;;;;;;;;4977512;28;20042;-87
2023/05/27 04:21:53;;;;;;;12.00;7.03;;;;;;;;;;4980817;28;20026;-87
2023/05/27 04:24:18;;;;;;;11.90;6.97;;;;;;;;;;4973959;28;20085;-85
2023/05/27 04:26:45;;;;;;;11.23;7.10;;;;;;;;;;4996781;28;20035;-86
2023/05/27 04:29:11;;;;;;;11.68;7.35;;;;;;;;;;4964792;28;20519;-88
2023/05/27 04:31:38;;;;;;;11.38;7.38;;;;;;;;;;4974122;28;20046;-87
2023/05/27 04:34:10;;;;;;;10.63;7.10;;;;;;;;;;4997068;28;20480;-87
2023/05/27 04:36:37;;;;;;;9.50;6.57;;;;;;;;;;4980706;28;20160;-85
2023/05/27 04:39:07;;;;;;;10.25;7.25;;;;;;;;;;4996336;28;20031;-86
2023/05/27 04:41:34;;;;;;;14.10;8.63;;;;;;;;;;4996530;28;20042;-85
2023/05/27 04:44:29;;;;;;;10.48;7.63;;;;;;;;;;4990136;28;20038;-85
2023/05/27 04:46:56;;;;;;;9.93;6.93;;;;;;;;;;4964416;28;20096;-85
2023/05/27 04:49:22;;;;;;;14.20;8.05;;;;;;;;;;4978397;28;20121;-88
2023/05/27 04:51:48;;;;;;;11.30;7.05;;;;;;;;;;4996070;28;20582;-85
2023/05/27 04:54:16;;;;;;;11.05;7.40;;;;;;;;;;4971310;28;20563;-89
2023/05/27 04:56:41;;;;;;;12.48;8.00;;;;;;;;;;4963918;28;20047;-84
2023/05/27 04:59:16;;;;;;;12.18;7.22;;;;;;;;;;4963305;28;20413;-86
2023/05/27 05:02:09;;;;;;;13.05;7.30;;;;;;;;;;4978891;28;20668;-86
2023/05/27 05:04:37;;;;;;;12.70;7.40;;;;;;;;;;4974009;28;20064;-85
2023/05/27 05:07:04;;;;;;;11.55;7.20;;;;;;;;;;4991837;28;20394;-85
2023/05/27 05:09:31;;;;;;;11.85;7.13;;;;;;;;;;4993134;28;20038;-85
2023/05/27 05:12:04;;;;;;;10.50;7.30;;;;;;;;;;4978040;28;20049;-85
2023/05/27 05:14:34;;;;;;;12.85;7.32;;;;;;;;;;4977844;28;20034;-84
2023/05/27 05:17:00;;;;;;;10.63;7.43;;;;;;;;;;4993972;28;20045;-85
2023/05/27 05:19:25;;;;;;;10.88;7.38;;;;;;;;;;4994608;28;20046;-84
2023/05/27 05:21:51;;;;;;;10.93;7.32;;;;;;;;;;4973869;28;20038;-88
2023/05/27 05:24:16;;;;;;;12.93;7.70;;;;;;;;;;4994409;28;20034;-84
2023/05/27 05:26:46;;;;;;;13.30;7.13;;;;;;;;;;4988915;28;20051;-86
2023/05/27 05:29:13;;;;;;;13.23;7.80;;;;;;;;;;4995973;28;20121;-86
2023/05/27 05:31:38;;;;;;;11.45;7.50;;;;;;;;;;4977109;28;20593;-85
2023/05/27 05:34:04;;;;;;;13.00;7.10;;;;;;;;;;4995587;28;20507;-85
2023/05/27 05:36:33;;;;;;;11.70;7.15;;;;;;;;;;4986963;28;20066;-87
2023/05/27 05:39:04;;;;;;;9.35;6.35;;;;;;;;;;4995080;28;20064;-85
2023/05/27 05:41:30;;;;;;;12.48;7.10;;;;;;;;;;4994026;28;20049;-85
2023/05/27 05:43:55;;;;;;;11.30;6.93;;;;;;;;;;4986878;28;20035;-87
2023/05/27 05:46:21;;;;;;;11.27;7.65;;;;;;;;;;4994689;28;20053;-84
2023/05/27 05:48:47;;;;;;;9.10;6.63;;;;;;;;;;4974674;28;20034;-86
2023/05/27 05:51:18;;;;;;;11.30;7.60;;;;;;;;;;4985676;28;20034;-87
2023/05/27 05:53:46;;;;;;;12.48;6.93;;;;;;;;;;4993725;28;20026;-86
2023/05/27 05:56:12;;;;;;;12.80;6.97;;;;;;;;;;4993949;28;20026;-86
2023/05/27 05:58:38;;;;;;;11.75;6.97;;;;;;;;;;4992687;28;20138;-87
2023/05/27 06:01:05;;;;;;;10.77;7.07;;;;;;;;;;4993668;28;20032;-83
2023/05/27 06:03:37;;;;;;;14.57;7.15;;;;;;;;;;4976612;28;20030;-84
2023/05/27 06:06:05;;;;;;;13.75;7.43;;;;;;;;;;4994096;28;20042;-83
2023/05/27 06:08:34;;;;;;;13.13;7.78;;;;;;;;;;4992797;28;20044;-84
2023/05/27 06:11:10;;;;;;;17.05;7.50;;;;;;;;;;4975010;28;20092;-84
2023/05/27 06:13:36;;;;;;;10.68;7.10;;;;;;;;;;4972383;28;20508;-83
2023/05/27 06:16:04;;;;;;;10.65;7.43;;;;;;;;;;4973901;28;20041;-83
2023/05/27 06:18:31;;;;;;;12.93;6.85;;;;;;;;;;4991992;28;20512;-83
2023/05/27 06:20:57;;;;;;;10.52;6.80;;;;;;;;;;4959964;28;20064;-85
2023/05/27 06:23:24;;;;;;;9.93;6.70;;;;;;;;;;4965234;28;20034;-84
2023/05/27 06:26:10;;;;;;;14.95;6.55;;;;;;;;;;4992577;28;20057;-84
2023/05/27 06:28:43;;;;;;;10.63;6.50;;;;;;;;;;4962501;28;20039;-83
2023/05/27 06:31:08;;;;;;;12.43;6.65;;;;;;;;;;4976166;28;20045;-85
2023/05/27 06:33:34;;;;;;;9.55;6.80;;;;;;;;;;4975801;28;20109;-83
2023/05/27 06:36:00;;;;;;;11.57;6.78;;;;;;;;;;4972583;28;20030;-83
2023/05/27 06:38:26;;;;;;;12.40;6.53;;;;;;;;;;4976195;28;20026;-84
2023/05/27 06:40:53;;;;;;;11.98;6.72;;;;;;;;;;4968905;28;20132;-85
2023/05/27 06:43:19;;;;;;;10.43;6.63;;;;;;;;;;4990604;28;20058;-83
2023/05/27 06:46:10;;;;;;;12.07;6.80;;;;;;;;;;4988923;28;20046;-83
2023/05/27 06:49:05;;;;;;;11.32;6.72;;;;;;;;;;4979698;28;20520;-84
2023/05/27 06:51:31;;;;;;;11.30;6.00;;;;;;;;;;4992051;28;20046;-83
2023/05/27 06:53:57;;;;;;;9.95;6.53;;;;;;;;;;4981173;28;20030;-83
2023/05/27 06:56:30;;;;;;;11.18;6.47;;;;;;;;;;4967321;28;20463;-85
2023/05/27 06:59:16;;;;;;;11.02;5.93;;;;;;;;;;4991880;28;20050;-86
2023/05/27 07:01:41;;;;;;;10.55;6.15;;;;;;;;;;4971675;28;20038;-84
2023/05/27 07:04:11;;;;;;;11.52;6.63;;;;;;;;;;4989660;28;20026;-85
2023/05/27 07:06:52;;;;;;;11.98;6.55;;;;;;;;;;4966743;28;20034;-85
2023/05/27 07:09:18;;;;;;;9.88;6.22;;;;;;;;;;4973365;28;20137;-86
2023/05/27 07:11:44;;;;;;;9.75;6.13;;;;;;;;;;4962435;28;20035;-85
2023/05/27 07:14:15;;;;;;;10.82;6.30;;;;;;;;;;4974044;28;20022;-85
2023/05/27 07:16:42;;;;;;;11.90;6.30;;;;;;;;;;4991404;28;20041;-84
2023/05/27 07:19:09;;;;;;;10.15;6.15;;;;;;;;;;4977361;28;20034;-87
2023/05/27 07:21:44;;;;;;;9.90;6.20;;;;;;;;;;4992132;28;20038;-85
2023/05/27 07:24:14;;;;;;;11.52;5.80;;;;;;;;;;4973277;28;20050;-82
2023/05/27 07:26:40;;;;;;;12.30;6.65;;;;;;;;;;4979085;28;20042;-83
2023/05/27 07:29:06;;;;;;;11.88;6.05;;;;;;;;;;4995758;28;20033;-84
2023/05/27 07:31:50;;;;;;;15.07;6.40;;;;;;;;;;4992628;28;20443;-86
2023/05/27 07:34:17;;;;;;;12.63;6.47;;;;;;;;;;4993341;28;20052;-84
2023/05/27 07:36:43;;;;;;;8.77;5.93;;;;;;;;;;4976423;28;20132;-84
2023/05/27 07:39:09;;;;;;;13.02;6.15;;;;;;;;;;4992845;28;20456;-85
2023/05/27 07:41:34;;;;;;;13.38;6.18;;;;;;;;;;4994374;28;20092;-81
2023/05/27 07:44:02;;;;;;;10.10;5.93;;;;;;;;;;4951205;28;20057;-83
2023/05/27 07:46:28;;;;;;;13.23;5.93;;;;;;;;;;4964288;28;20039;-85
2023/05/27 07:48:53;;;;;;;9.02;5.53;;;;;;;;;;4966620;28;20049;-82
2023/05/27 07:51:19;;;;;;;10.95;5.78;;;;;;;;;;4963419;28;20035;-82
2023/05/27 07:53:45;;;;;;;13.13;6.07;;;;;;;;;;4992990;28;20030;-85
2023/05/27 07:56:12;;;;;;;13.77;6.53;;;;;;;;;;4991868;28;20121;-83
2023/05/27 07:58:38;;;;;;;12.75;6.50;;;;;;;;;;4992667;28;20172;-86
2023/05/27 08:01:08;;;;;;;13.25;6.05;;;;;;;;;;4964324;28;20037;-85
2023/05/27 08:03:34;;;;;;;13.52;6.88;;;;;;;;;;4964876;28;20023;-83
2023/05/27 08:06:24;;;;;;;13.05;6.35;;;;;;;;;;4947917;28;20483;-87
2023/05/27 08:08:50;;;;;;;11.07;6.22;;;;;;;;;;4993480;28;20051;-83
2023/05/27 08:11:40;;;;;;;13.75;7.00;;;;;;;;;;4994824;28;20039;-84
2023/05/27 08:14:06;;;;;;;13.07;6.32;;;;;;;;;;4994255;28;20126;-83
2023/05/27 08:16:50;;;;;;;13.00;6.70;;;;;;;;;;4992686;28;20057;-82
2023/05/27 08:19:23;;;;;;;11.60;6.93;;;;;;;;;;4991647;28;20038;-84
2023/05/27 08:21:55;;;;;;;12.77;6.70;;;;;;;;;;4992479;28;20117;-83
2023/05/27 08:24:39;;;;;;;17.42;7.25;;;;;;;;;;4993948;28;20053;-85
2023/05/27 08:27:19;;;;;;;9.63;6.55;;;;;;;;;;4969201;28;20031;-84
2023/05/27 08:30:00;;;;;;;13.63;7.15;;;;;;;;;;4998095;28;20104;-86
2023/05/27 08:32:48;;;;;;;13.43;6.10;;;;;;;;;;4966100;28;20034;-86
2023/05/27 08:35:14;;;;;;;11.23;6.13;;;;;;;;;;4978950;28;20443;-86
2023/05/27 08:37:40;;;;;;;11.63;6.40;;;;;;;;;;4995352;28;20039;-86
2023/05/27 08:40:17;;;;;;;10.93;5.82;;;;;;;;;;4996000;28;20053;-87
2023/05/27 08:42:49;;;;;;;12.10;5.72;;;;;;;;;;4962311;28;20038;-87
2023/05/27 08:45:15;;;;;;;11.95;6.05;;;;;;;;;;4972198;28;20045;-88
2023/05/27 08:47:41;;;;;;;12.25;6.45;;;;;;;;;;4995392;28;20035;-86
2023/05/27 08:50:12;;;;;;;11.40;6.55;;;;;;;;;;4978920;28;20038;-88
2023/05/27 08:52:45;;;;;;;12.85;6.07;;;;;;;;;;4972649;28;20038;-87
2023/05/27 08:55:14;;;;;;;12.07;6.35;;;;;;;;;;4968282;28;20030;-88
2023/05/27 08:57:49;;;;;;;12.27;6.18;;;;;;;;;;4995028;28;20037;-87
2023/05/27 09:00:15;;;;;;;14.65;6.60;;;;;;;;;;4978229;28;20374;-87
2023/05/27 09:02:41;;;;;;;13.10;6.30;;;;;;;;;;4968384;28;20026;-87
2023/05/27 09:05:10;;;;;;;10.18;6.10;;;;;;;;;;4978513;28;20045;-86
2023/05/27 09:07:36;;;;;;;9.48;5.63;;;;;;;;;;4998175;28;20026;-87
2023/05/27 09:10:01;;;;;;;12.70;6.20;;;;;;;;;;4999387;28;20098;-86
2023/05/27 09:12:27;;;;;;;14.45;6.00;;;;;;;;;;5001211;28;20072;-87
2023/05/27 09:14:56;;;;;;;12.68;6.13;;;;;;;;;;5002185;28;20094;-87
2023/05/27 09:17:23;;;;;;;11.52;6.45;;;;;;;;;;5001248;28;20067;-87
2023/05/27 09:19:50;;;;;;;10.18;5.90;;;;;;;;;;4999998;28;20084;-87
2023/05/27 09:22:31;;;;;;;11.27;5.93;;;;;;;;;;5001788;28;20060;-87
2023/05/27 09:24:57;;;;;;;12.75;6.35;;;;;;;;;;5000208;28;20031;-87
2023/05/27 09:27:31;;;;;;;13.27;6.22;;;;;;;;;;4965244;28;20034;-88
2023/05/27 09:30:06;;;;;;;12.73;6.32;;;;;;;;;;4997281;28;20523;-87
2023/05/27 09:32:32;;;;;;;12.48;6.80;;;;;;;;;;4976612;28;20058;-87
2023/05/27 09:35:00;;;;;;;13.48;5.88;;;;;;;;;;4984294;28;20068;-87
2023/05/27 09:37:31;;;;;;;14.82;6.72;;;;;;;;;;4998651;28;20473;-88
2023/05/27 09:39:58;;;;;;;15.07;6.53;;;;;;;;;;4969103;28;20113;-87
2023/05/27 09:42:23;;;;;;;10.98;6.05;;;;;;;;;;4979169;28;20041;-88
2023/05/27 09:44:49;;;;;;;10.88;6.22;;;;;;;;;;4998117;28;20117;-88
2023/05/27 09:47:16;;;;;;;12.52;6.18;;;;;;;;;;4999386;28;20027;-86
2023/05/27 09:49:42;;;;;;;11.07;6.47;;;;;;;;;;4977107;28;20022;-86
2023/05/27 09:52:11;;;;;;;10.45;5.68;;;;;;;;;;4998689;28;20042;-88
2023/05/27 09:54:37;;;;;;;12.02;6.28;;;;;;;;;;4998577;28;20113;-86
2023/05/27 09:57:06;;;;;;;11.45;6.18;;;;;;;;;;4998967;28;20042;-87
2023/05/27 09:59:32;;;;;;;18.92;6.55;;;;;;;;;;4999652;28;20026;-89
2023/05/27 10:02:00;;;;;;;13.10;6.70;;;;;;;;;;4995667;28;20030;-88
2023/05/27 10:04:27;;;;;;;11.57;6.03;;;;;;;;;;4996195;28;20117;-87
2023/05/27 10:06:53;;;;;;;13.98;6.45;;;;;;;;;;4974603;28;20105;-88
2023/05/27 10:09:19;;;;;;;16.05;6.22;;;;;;;;;;4995550;28;20060;-87
2023/05/27 10:11:45;;;;;;;15.63;5.97;;;;;;;;;;4999486;28;20460;-86
2023/05/27 10:14:11;;;;;;;16.40;6.47;;;;;;;;;;4997767;28;20033;-85
2023/05/27 10:16:37;;;;;;;15.38;5.95;;;;;;;;;;4997711;28;20113;-88
2023/05/27 10:19:10;;;;;;;11.85;5.22;;;;;;;;;;4979656;28;20065;-88
2023/05/27 10:21:42;;;;;;;10.70;5.90;;;;;;;;;;4995746;28;20038;-87
2023/05/27 10:24:10;;;;;;;10.67;5.80;;;;;;;;;;4974558;28;20034;-86
2023/05/27 10:26:36;;;;;;;9.60;5.40;;;;;;;;;;4995294;28;20628;-88
2023/05/27 10:29:13;;;;;;;14.07;5.38;;;;;;;;;;4977174;28;20035;-85
2023/05/27 10:31:51;;;;;;;12.15;5.38;;;;;;;;;;4994428;28;20176;-86
2023/05/27 10:34:17;;;;;;;12.55;5.15;;;;;;;;;;4993021;28;20388;-86
2023/05/27 10:36:46;;;;;;;10.88;5.40;;;;;;;;;;4995063;28;20041;-86
2023/05/27 10:39:19;;;;;;;12.95;5.68;;;;;;;;;;4976803;28;20462;-86
2023/05/27 10:41:55;;;;;;;14.63;5.32;;;;;;;;;;4994594;28;20389;-86
2023/05/27 10:44:30;;;;;;;9.55;5.00;;;;;;;;;;4994166;28;20493;-86
2023/05/27 10:47:02;;;;;;;10.43;4.97;;;;;;;;;;4994279;28;20073;-86
2023/05/27 10:49:35;;;;;;;10.35;5.22;;;;;;;;;;4994317;28;20480;-86
2023/05/27 10:52:06;;;;;;;9.40;4.85;;;;;;;;;;4968110;28;20031;-86
2023/05/27 10:54:35;;;;;;;9.77;5.28;;;;;;;;;;4994949;28;20053;-85
2023/05/27 10:57:02;;;;;;;10.05;5.40;;;;;;;;;;4994145;28;20463;-87
2023/05/27 10:59:52;;;;;;;9.13;4.90;;;;;;;;;;4994192;28;20049;-88
2023/05/27 11:02:19;;;;;;;10.77;4.85;;;;;;;;;;4976722;28;20054;-87
2023/05/27 11:04:45;;;;;;;11.43;5.07;;;;;;;;;;4993989;28;20038;-87
2023/05/27 11:07:10;;;;;;;10.00;5.00;;;;;;;;;;4978242;28;20041;-87
2023/05/27 11:09:47;;;;;;;12.35;5.07;;;;;;;;;;4993661;28;20040;-87
2023/05/27 11:12:23;;;;;;;12.52;4.60;;;;;;;;;;4994120;28;20035;-86
2023/05/27 11:14:51;;;;;;;10.38;4.65;;;;;;;;;;4991325;28;20023;-83
2023/05/27 11:17:17;;;;;;;9.80;4.72;;;;;;;;;;4993622;28;20068;-83
2023/05/27 11:19:46;;;;;;;14.40;4.70;;;;;;;;;;4977596;28;20133;-83
2023/05/27 11:22:13;;;;;;;13.23;4.75;;;;;;;;;;4995675;28;20656;-85
2023/05/27 11:24:39;;;;;;;12.45;4.40;;;;;;;;;;4978729;28;20034;-86
2023/05/27 11:27:13;;;;;;;8.65;4.22;;;;;;;;;;4994187;28;20049;-87
2023/05/27 11:29:38;;;;;;;;;;;;;;;;;;4995358;28;20446;-86
2023/05/27 11:32:05;;;;;;;13.80;4.28;;;;;;;;;;4971028;28;20011;-88
2023/05/27 11:34:34;;;;;;;11.13;4.57;;;;;;;;;;4994967;28;20046;-87
2023/05/27 11:37:04;;;;;;;9.32;4.28;;;;;;;;;;4973810;28;20416;-86
2023/05/27 11:39:30;;;;;;;8.80;4.30;;;;;;;;;;4966290;28;20034;-86
2023/05/27 11:41:55;;;;;;;8.32;4.53;;;;;;;;;;4994606;28;20026;-87
2023/05/27 11:44:22;;;;;;;11.60;4.78;;;;;;;;;;4994971;28;20648;-88
2023/05/27 11:46:48;;;;;;;11.00;4.60;;;;;;;;;;4993806;28;20069;-86
2023/05/27 11:49:18;;;;;;;8.00;4.78;;;;;;;;;;4972063;28;20050;-86
2023/05/27 11:51:49;;;;;;;11.73;4.50;;;;;;;;;;4964765;28;20121;-86
2023/05/27 11:54:23;;;;;;;9.73;4.63;;;;;;;;;;4993337;28;20030;-86
2023/05/27 11:56:49;;;;;;;10.02;4.18;;;;;;;;;;4965555;28;20039;-86
2023/05/27 11:59:15;;;;;;;10.25;4.30;;;;;;;;;;4975542;28;20132;-86
2023/05/27 12:01:41;;;;;;;8.63;4.40;;;;;;;;;;4991131;28;20034;-86
2023/05/27 12:04:06;;;;;;;8.70;4.40;;;;;;;;;;4991516;28;20122;-86
2023/05/27 12:06:32;;;;;;;9.80;4.75;;;;;;;;;;4993402;28;20757;-86
2023/05/27 12:08:58;;;;;;;8.30;4.13;;;;;;;;;;4993151;28;20042;-86
2023/05/27 12:11:24;;;;;;;8.55;4.35;;;;;;;;;;4993461;28;20034;-86
2023/05/27 12:13:51;;;;;;;9.23;4.50;;;;;;;;;;4992163;28;20057;-86
2023/05/27 12:16:16;;;;;;;13.93;4.63;;;;;;;;;;4968112;28;20035;-86
2023/05/27 12:18:42;;;;;;;7.43;4.20;;;;;;;;;;4992439;28;20045;-86
2023/05/27 12:21:07;;;;;;;9.05;4.18;;;;;;;;;;4975274;28;20034;-86
2023/05/27 12:23:33;;;;;;;8.82;4.25;;;;;;;;;;4990922;28;20038;-86
2023/05/27 12:25:59;;;;;;;10.02;4.40;;;;;;;;;;4971769;28;20040;-86
2023/05/27 12:28:26;;;;;;;13.25;3.97;;;;;;;;;;4974119;28;20034;-86
2023/05/27 12:30:51;;;;;;;9.82;4.45;;;;;;;;;;4994206;28;20030;-87
2023/05/27 12:33:17;;;;;;;9.60;4.03;;;;;;;;;;4976155;28;20026;-86
2023/05/27 12:35:42;;;;;;;10.43;4.53;;;;;;;;;;4967741;28;20054;-87
2023/05/27 12:38:08;;;;;;;9.00;4.28;;;;;;;;;;4995878;28;20068;-87
2023/05/27 12:40:33;;;;;;;11.10;4.38;;;;;;;;;;4995676;28;20042;-87
2023/05/27 12:42:59;;;;;;;8.60;4.10;;;;;;;;;;4996317;28;20038;-87
2023/05/27 12:45:25;;;;;;;10.45;4.10;;;;;;;;;;4998016;28;20484;-88
2023/05/27 12:47:54;;;;;;;9.40;4.20;;;;;;;;;;4998129;28;20058;-87
2023/05/27 12:50:21;;;;;;;9.00;4.40;;;;;;;;;;4997698;28;20040;-88
2023/05/27 12:52:47;;;;;;;9.63;4.03;;;;;;;;;;4994203;28;20042;-86
2023/05/27 12:55:18;;;;;;;9.18;4.40;;;;;;;;;;4982701;28;20055;-86
2023/05/27 12:57:49;;;;;;;8.80;4.20;;;;;;;;;;4999314;28;20404;-86
2023/05/27 13:00:16;;;;;;;8.80;3.80;;;;;;;;;;4995735;28;20042;-86
2023/05/27 13:02:43;;;;;;;10.38;4.20;;;;;;;;;;4997483;28;20126;-86
2023/05/27 13:05:08;;;;;;;10.07;4.18;;;;;;;;;;4997746;28;20030;-87
2023/05/27 13:07:35;;;;;;;8.35;3.95;;;;;;;;;;4998658;28;20060;-87
2023/05/27 13:10:03;;;;;;;9.57;4.30;;;;;;;;;;4998233;28;20034;-87
2023/05/27 13:12:29;;;;;;;9.38;4.13;;;;;;;;;;4995493;28;20436;-87
2023/05/27 13:14:56;;;;;;;8.30;3.92;;;;;;;;;;4972361;28;20453;-87
2023/05/27 13:17:22;;;;;;;11.80;4.32;;;;;;;;;;4996923;28;20030;-87
2023/05/27 13:19:48;;;;;;;9.93;4.40;;;;;;;;;;4996504;28;20035;-87
2023/05/27 13:22:14;;;;;;;9.57;4.05;;;;;;;;;;4997345;28;20038;-86
2023/05/27 13:24:40;;;;;;;9.48;4.28;;;;;;;;;;4996683;28;20456;-86
2023/05/27 13:27:06;;;;;;;9.77;3.95;;;;;;;;;;4997038;28;20038;-86
2023/05/27 13:29:32;;;;;;;9.90;4.18;;;;;;;;;;4997248;28;20046;-87
2023/05/27 13:31:58;;;;;;;8.38;4.00;;;;;;;;;;4997092;28;20432;-87
2023/05/27 13:34:24;;;;;;;8.90;4.63;;;;;;;;;;4972887;28;20125;-85
2023/05/27 13:36:49;;;;;;;7.72;4.15;;;;;;;;;;4977175;28;20386;-86
2023/05/27 13:39:15;;;;;;;8.02;4.00;;;;;;;;;;4996072;28;20049;-86
2023/05/27 13:41:40;;;;;;;11.45;4.25;;;;;;;;;;4995682;28;20049;-87
2023/05/27 13:44:06;;;;;;;8.25;3.70;;;;;;;;;;4976387;28;20046;-86
2023/05/27 13:46:31;;;;;;;7.40;3.78;;;;;;;;;;4973182;28;20112;-87
2023/05/27 13:48:57;;;;;;;8.20;4.40;;;;;;;;;;4995987;28;20049;-86
2023/05/27 13:51:22;;;;;;;8.73;3.90;;;;;;;;;;4997371;28;20101;-87
2023/05/27 13:53:51;;;;;;;11.15;4.13;;;;;;;;;;4977815;28;20301;-86
2023/05/27 13:56:16;;;;;;;13.32;4.05;;;;;;;;;;4996311;28;20045;-86
2023/05/27 13:58:42;;;;;;;7.65;3.75;;;;;;;;;;4995997;28;20034;-86
2023/05/27 14:01:07;;;;;;;7.97;4.00;;;;;;;;;;4979244;28;20038;-88
2023/05/27 14:03:33;;;;;;;14.75;4.07;;;;;;;;;;4996761;28;20042;-87
2023/05/27 14:05:58;;;;;;;11.50;4.15;;;;;;;;;;4997629;28;20726;-87
2023/05/27 14:08:24;;;;;;;7.45;4.13;;;;;;;;;;4996342;28;20092;-86
2023/05/27 14:10:49;;;;;;;10.15;4.05;;;;;;;;;;4980149;28;20045;-84
2023/05/27 14:13:15;;;;;;;8.55;3.70;;;;;;;;;;4988797;28;20104;-85
2023/05/27 14:15:41;;;;;;;9.02;4.50;;;;;;;;;;4983816;28;20031;-85
2023/05/27 14:18:06;;;;;;;8.93;3.92;;;;;;;;;;4970252;28;20121;-84
2023/05/27 14:20:33;;;;;;;11.52;3.67;;;;;;;;;;4982996;28;20042;-85
2023/05/27 14:23:01;;;;;;;7.22;3.83;;;;;;;;;;4996313;28;20034;-85
2023/05/27 14:25:27;;;;;;;8.20;3.60;;;;;;;;;;4990326;28;20096;-84
2023/05/27 14:27:53;;;;;;;7.30;3.63;;;;;;;;;;4996651;28;20042;-85
2023/05/27 14:30:18;;;;;;;7.10;3.90;;;;;;;;;;4969517;28;20034;-85
2023/05/27 14:32:44;;;;;;;10.57;4.00;;;;;;;;;;4995748;28;20084;-84
2023/05/27 14:35:10;;;;;;;8.75;4.10;;;;;;;;;;4999968;28;20031;-85
2023/05/27 14:37:36;;;;;;;7.22;3.88;;;;;;;;;;5000794;28;20053;-84
2023/05/27 14:40:02;;;;;;;7.63;4.03;;;;;;;;;;4995407;28;20129;-85